1893 Hurricane NOT_NAMED (1893238N12339)


IBTrACS version v04r00. Visit IBTrACS website for data access.
Please direct all questions to the IBTrACS Q and A forum

Storm track - Intensity - Wind Radii - Intensity Data - Source Data - All data

Summary Information

Storm ID 1893238N12339
Start Aug 25 12Z
Max Intensity 75 kt (Aug 28 12Z)
End Sep 4 12Z
ATCF IDs
Track status Best track data.

Storm track plot

Map of storm track

Intensity plots

Map of storm track

Radial wind information

No radial wind information for this storm


Position and Intensity Table

BASIN ISO_TIME_________ NATURE LAT LON MLC WIND
degrees north degrees east kts
NA 1893-08-25 12:00:00 TS 12.00 -21.00 30
NA 15:00:00 TS 12.09 -21.66 32
NA 18:00:00 TS 12.20 -22.30 35
NA 21:00:00 TS 12.34 -22.90 40
NA 1893-08-26 00:00:00 TS 12.50 -23.50 45
NA 03:00:00 TS 12.66 -24.15 50
NA 06:00:00 TS 12.80 -24.80 55
NA 09:00:00 TS 12.89 -25.39 57
NA 12:00:00 TS 13.00 -26.00 60
NA 15:00:00 TS 13.18 -26.73 62
NA 18:00:00 TS 13.40 -27.50 65
NA 21:00:00 TS 13.59 -28.29 65
NA 1893-08-27 00:00:00 TS 13.80 -29.00 65
NA 03:00:00 TS 14.05 -29.46 65
NA 06:00:00 TS 14.30 -30.00 65
NA 09:00:00 TS 14.49 -30.96 67
NA 12:00:00 TS 14.70 -32.00 70
NA 15:00:00 TS 15.03 -32.79 70
NA 18:00:00 TS 15.40 -33.50 70
NA 21:00:00 TS 15.75 -34.25 70
NA 1893-08-28 00:00:00 TS 16.10 -35.00 70
NA 03:00:00 TS 16.45 -35.75 70
NA 06:00:00 TS 16.80 -36.50 70
NA 09:00:00 TS 17.15 -37.25 72
NA 12:00:00 TS 17.50 -38.00 75
NA 15:00:00 TS 17.86 -38.75 75
NA 18:00:00 TS 18.20 -39.50 75
NA 21:00:00 TS 18.54 -40.25 75
NA 1893-08-29 00:00:00 TS 18.80 -41.00 75
NA 03:00:00 TS 18.87 -41.75 75
NA 06:00:00 TS 19.00 -42.50 75
NA 09:00:00 TS 19.43 -43.25 75
NA 12:00:00 TS 20.00 -44.00 75
NA 15:00:00 TS 20.54 -44.75 75
NA 18:00:00 TS 21.10 -45.50 75
NA 21:00:00 TS 21.65 -46.25 75
NA 1893-08-30 00:00:00 TS 22.20 -47.00 75
NA 03:00:00 TS 22.76 -47.75 75
NA 06:00:00 TS 23.30 -48.50 75
NA 09:00:00 TS 23.81 -49.27 75
NA 12:00:00 TS 24.30 -50.00 75
NA 15:00:00 TS 24.75 -50.67 75
NA 18:00:00 TS 25.20 -51.30 75
NA 21:00:00 TS 25.70 -51.98 75
NA 1893-08-31 00:00:00 TS 26.20 -52.60 75
NA 03:00:00 TS 26.66 -53.07 75
NA 06:00:00 TS 27.10 -53.50 75
NA 09:00:00 TS 27.56 -54.04 75
NA 12:00:00 TS 28.00 -54.50 75
NA 15:00:00 TS 28.41 -54.77 75
NA 18:00:00 TS 28.80 -54.90 75
NA 21:00:00 TS 29.16 -54.97 75
NA 1893-09-01 00:00:00 TS 29.50 -55.00 75
NA 03:00:00 TS 29.84 -55.06 75
NA 06:00:00 TS 30.20 -55.10 75
NA 09:00:00 TS 30.61 -55.07 75
NA 12:00:00 TS 31.00 -55.00 75
NA 15:00:00 TS 31.27 -54.93 75
NA 18:00:00 TS 31.50 -54.80 75
NA 21:00:00 TS 31.75 -54.57 75
NA 1893-09-02 00:00:00 TS 32.00 -54.30 75
NA 03:00:00 TS 32.25 -54.20 75
NA 06:00:00 TS 32.50 -53.90 75
NA 09:00:00 TS 32.79 -53.00 75
NA 12:00:00 TS 33.00 -52.00 75
NA 15:00:00 TS 33.04 -51.44 75
NA 18:00:00 TS 33.00 -51.00 75
NA 21:00:00 TS 33.00 -50.46 72
NA 1893-09-03 00:00:00 TS 33.00 -49.90 70
NA 03:00:00 TS 33.00 -49.34 70
NA 06:00:00 TS 33.00 -48.80 70
NA 09:00:00 TS 33.00 -48.27 67
NA 12:00:00 TS 33.00 -47.80 65
NA 15:00:00 TS 33.00 -47.43 65
NA 18:00:00 TS 33.00 -47.10 65
NA 21:00:00 TS 33.00 -46.75 60
NA 1893-09-04 00:00:00 TS 33.00 -46.40 55
NA 03:00:00 TS 33.00 -46.05 50
NA 06:00:00 TS 33.00 -45.70 45
NA 09:00:00 TS 33.00 -45.35 40
NA 12:00:00 TS 33.00 -45.00 35

Source Information

Agency Information
USA
TOKYO
CMA
HKO
NEWDELHI
REUNION
BOM
NADI
WELLINGTON
DS824
TD9636
TD9635
NEUMANN
MLC

All available IBTrACS Data

SEASON BASIN SUBBASIN ISO_TIME_________ NATURE LAT LON DIST2LAND LANDFALL IFLAG USA SSHS MLC LAT MLC LON MLC CLASS MLC WIND STORM SPEED STORM DIR
Year degrees north degrees east km km 1 degrees north degrees east kts kts degrees
1893 NA NA 1893-08-25 12:00:00 TS 12.00 -21.00 458 458 _____________O -1 12.00 -21.00 TD 30 13 278
1893 NA NA 15:00:00 TS 12.09 -21.66 533 533 _____________P -1 12.09 -21.66 TD 32 13 279
1893 NA NA 18:00:00 TS 12.20 -22.30 589 589 _____________O -1 12.20 -22.30 TS 35 12 282
1893 NA NA 21:00:00 TS 12.34 -22.90 642 638 _____________P -1 12.34 -22.90 TS 40 12 284
1893 NA NA 1893-08-26 00:00:00 TS 12.50 -23.50 693 693 _____________O -1 12.50 -23.50 TS 45 13 284
1893 NA NA 03:00:00 TS 12.66 -24.15 747 747 _____________P -1 12.66 -24.15 TS 50 13 283
1893 NA NA 06:00:00 TS 12.80 -24.80 816 816 _____________O -1 12.80 -24.80 TS 55 12 281
1893 NA NA 09:00:00 TS 12.89 -25.39 876 876 _____________P -1 12.89 -25.39 TS 57 12 280
1893 NA NA 12:00:00 TS 13.00 -26.00 937 937 _____________O -1 13.00 -26.00 TS 60 13 283
1893 NA NA 15:00:00 TS 13.18 -26.73 1007 1007 _____________P -1 13.18 -26.73 TS 62 15 285
1893 NA NA 18:00:00 TS 13.40 -27.50 1088 1088 _____________O -1 13.40 -27.50 HU 65 16 285
1893 NA NA 21:00:00 TS 13.59 -28.29 1171 1171 _____________P -1 13.59 -28.29 HU 65 15 285
1893 NA NA 1893-08-27 00:00:00 TS 13.80 -29.00 1243 1243 _____________O -1 13.80 -29.00 HU 65 12 292
1893 NA NA 03:00:00 TS 14.05 -29.46 1295 1294 _____________P -1 14.05 -29.46 HU 65 11 297
1893 NA NA 06:00:00 TS 14.30 -30.00 1346 1346 _____________O -1 14.30 -30.00 HU 65 15 287
1893 NA NA 09:00:00 TS 14.49 -30.96 1453 1453 _____________P -1 14.49 -30.96 HU 67 20 282
1893 NA NA 12:00:00 TS 14.70 -32.00 1560 1560 _____________O -1 14.70 -32.00 HU 70 18 287
1893 NA NA 15:00:00 TS 15.03 -32.79 1645 1645 _____________P -1 15.03 -32.79 HU 70 16 296
1893 NA NA 18:00:00 TS 15.40 -33.50 1720 1720 _____________O -1 15.40 -33.50 HU 70 16 297
1893 NA NA 21:00:00 TS 15.75 -34.25 1806 1806 _____________P -1 15.75 -34.25 HU 70 16 296
1893 NA NA 1893-08-28 00:00:00 TS 16.10 -35.00 1882 1882 _____________O -1 16.10 -35.00 HU 70 16 296
1893 NA NA 03:00:00 TS 16.45 -35.75 1969 1969 _____________P -1 16.45 -35.75 HU 70 16 296
1893 NA NA 06:00:00 TS 16.80 -36.50 2046 2046 _____________O -1 16.80 -36.50 HU 70 16 296
1893 NA NA 09:00:00 TS 17.15 -37.25 2094 2070 _____________P -1 17.15 -37.25 HU 72 16 296
1893 NA NA 12:00:00 TS 17.50 -38.00 2070 2041 _____________O -1 17.50 -38.00 HU 75 16 296
1893 NA NA 15:00:00 TS 17.86 -38.75 2042 2016 _____________P -1 17.86 -38.75 HU 75 16 296
1893 NA NA 18:00:00 TS 18.20 -39.50 2017 1996 _____________O -1 18.20 -39.50 HU 75 16 296
1893 NA NA 21:00:00 TS 18.54 -40.25 1996 1972 _____________P -1 18.54 -40.25 HU 75 15 293
1893 NA NA 1893-08-29 00:00:00 TS 18.80 -41.00 1972 1937 _____________O -1 18.80 -41.00 HU 75 15 283
1893 NA NA 03:00:00 TS 18.87 -41.75 1930 1894 _____________P -1 18.87 -41.75 HU 75 14 278
1893 NA NA 06:00:00 TS 19.00 -42.50 1894 1881 _____________O -1 19.00 -42.50 HU 75 15 292
1893 NA NA 09:00:00 TS 19.43 -43.25 1888 1886 _____________P -1 19.43 -43.25 HU 75 17 305
1893 NA NA 12:00:00 TS 20.00 -44.00 1900 1899 _____________O -1 20.00 -44.00 HU 75 18 308
1893 NA NA 15:00:00 TS 20.54 -44.75 1908 1908 _____________P -1 20.54 -44.75 HU 75 18 308
1893 NA NA 18:00:00 TS 21.10 -45.50 1936 1936 _____________O -1 21.10 -45.50 HU 75 18 308
1893 NA NA 21:00:00 TS 21.65 -46.25 1952 1952 _____________P -1 21.65 -46.25 HU 75 18 308
1893 NA NA 1893-08-30 00:00:00 TS 22.20 -47.00 1968 1923 _____________O -1 22.20 -47.00 HU 75 18 309
1893 NA NA 03:00:00 TS 22.76 -47.75 1915 1857 _____________P -1 22.76 -47.75 HU 75 18 308
1893 NA NA 06:00:00 TS 23.30 -48.50 1857 1803 _____________O -1 23.30 -48.50 HU 75 18 307
1893 NA NA 09:00:00 TS 23.81 -49.27 1793 1743 _____________P -1 23.81 -49.27 HU 75 17 306
1893 NA NA 12:00:00 TS 24.30 -50.00 1743 1701 _____________O -1 24.30 -50.00 HU 75 16 306
1893 NA NA 15:00:00 TS 24.75 -50.67 1692 1658 _____________P -1 24.75 -50.67 HU 75 15 307
1893 NA NA 18:00:00 TS 25.20 -51.30 1658 1623 _____________O -1 25.20 -51.30 HU 75 15 309
1893 NA NA 21:00:00 TS 25.70 -51.98 1619 1594 _____________P -1 25.70 -51.98 HU 75 15 310
1893 NA NA 1893-08-31 00:00:00 TS 26.20 -52.60 1594 1578 _____________O -1 26.20 -52.60 HU 75 14 314
1893 NA NA 03:00:00 TS 26.66 -53.07 1581 1574 _____________P -1 26.66 -53.07 HU 75 12 318
1893 NA NA 06:00:00 TS 27.10 -53.50 1574 1561 _____________O -1 27.10 -53.50 HU 75 12 316
1893 NA NA 09:00:00 TS 27.56 -54.04 1568 1559 _____________P -1 27.56 -54.04 HU 75 13 315
1893 NA NA 12:00:00 TS 28.00 -54.50 1559 1559 _____________O -1 28.00 -54.50 HU 75 11 323
1893 NA NA 15:00:00 TS 28.41 -54.77 1567 1567 _____________P -1 28.41 -54.77 HU 75 9 336
1893 NA NA 18:00:00 TS 28.80 -54.90 1591 1591 _____________O -1 28.80 -54.90 HU 75 8 346
1893 NA NA 21:00:00 TS 29.16 -54.97 1616 1616 _____________P -1 29.16 -54.97 HU 75 7 353
1893 NA NA 1893-09-01 00:00:00 TS 29.50 -55.00 1640 1640 _____________O -1 29.50 -55.00 HU 75 7 353
1893 NA NA 03:00:00 TS 29.84 -55.06 1658 1658 _____________P -1 29.84 -55.06 HU 75 7 353
1893 NA NA 06:00:00 TS 30.20 -55.10 1691 1691 _____________O -1 30.20 -55.10 HU 75 8 0
1893 NA NA 09:00:00 TS 30.61 -55.07 1693 1659 _____________P -1 30.61 -55.07 HU 75 8 6
1893 NA NA 12:00:00 TS 31.00 -55.00 1659 1635 _____________O -1 31.00 -55.00 HU 75 7 11
1893 NA NA 15:00:00 TS 31.27 -54.93 1635 1619 _____________P -1 31.27 -54.93 HU 75 5 19
1893 NA NA 18:00:00 TS 31.50 -54.80 1619 1601 _____________O -1 31.50 -54.80 HU 75 6 33
1893 NA NA 21:00:00 TS 31.75 -54.57 1593 1581 _____________P -1 31.75 -54.57 HU 75 7 40
1893 NA NA 1893-09-02 00:00:00 TS 32.00 -54.30 1581 1564 _____________O -1 32.00 -54.30 HU 75 6 32
1893 NA NA 03:00:00 TS 32.25 -54.20 1564 1539 _____________P -1 32.25 -54.20 HU 75 6 34
1893 NA NA 06:00:00 TS 32.50 -53.90 1542 1535 _____________O -1 32.50 -53.90 HU 75 12 62
1893 NA NA 09:00:00 TS 32.79 -53.00 1536 1515 _____________P -1 32.79 -53.00 HU 75 17 73
1893 NA NA 12:00:00 TS 33.00 -52.00 1517 1517 _____________O -1 33.00 -52.00 HU 75 13 79
1893 NA NA 15:00:00 TS 33.04 -51.44 1521 1521 _____________P -1 33.04 -51.44 HU 75 8 90
1893 NA NA 18:00:00 TS 33.00 -51.00 1525 1525 _____________O -1 33.00 -51.00 HU 75 8 93
1893 NA NA 21:00:00 TS 33.00 -50.46 1530 1530 _____________P -1 33.00 -50.46 HU 72 9 90
1893 NA NA 1893-09-03 00:00:00 TS 33.00 -49.90 1539 1539 _____________O -1 33.00 -49.90 HU 70 9 90
1893 NA NA 03:00:00 TS 33.00 -49.34 1549 1549 _____________P -1 33.00 -49.34 HU 70 9 90
1893 NA NA 06:00:00 TS 33.00 -48.80 1558 1558 _____________O -1 33.00 -48.80 HU 70 9 90
1893 NA NA 09:00:00 TS 33.00 -48.27 1569 1569 _____________P -1 33.00 -48.27 HU 67 8 90
1893 NA NA 12:00:00 TS 33.00 -47.80 1580 1580 _____________O -1 33.00 -47.80 HU 65 7 90
1893 NA NA 15:00:00 TS 33.00 -47.43 1591 1591 _____________P -1 33.00 -47.43 HU 65 6 90
1893 NA NA 18:00:00 TS 33.00 -47.10 1599 1599 _____________O -1 33.00 -47.10 HU 65 6 90
1893 NA NA 21:00:00 TS 33.00 -46.75 1610 1607 _____________P -1 33.00 -46.75 HU 60 6 90
1893 NA NA 1893-09-04 00:00:00 TS 33.00 -46.40 1619 1619 _____________O -1 33.00 -46.40 TS 55 6 90
1893 NA NA 03:00:00 TS 33.00 -46.05 1631 1628 _____________P -1 33.00 -46.05 TS 50 6 90
1893 NA NA 06:00:00 TS 33.00 -45.70 1641 1641 _____________O -1 33.00 -45.70 TS 45 6 90
1893 NA NA 09:00:00 TS 33.00 -45.35 1654 1650 _____________P -1 33.00 -45.35 TS 40 6 90
1893 NA NA 12:00:00 TS 33.00 -45.00 1664 _____________O -1 33.00 -45.00 TS 35 6 90